sensor_id;sensor_type;location;lat;lon;timestamp;P1;durP1;ratioP1;P2;durP2;ratioP2
23608;SDS011;11982;50.810;4.442;2023-04-08T00:00:03;30.00;;;10.25;;
23608;SDS011;11982;50.810;4.442;2023-04-08T00:02:30;29.27;;;10.40;;
23608;SDS011;11982;50.810;4.442;2023-04-08T00:04:56;41.38;;;11.85;;
23608;SDS011;11982;50.810;4.442;2023-04-08T00:07:22;34.53;;;11.20;;
23608;SDS011;11982;50.810;4.442;2023-04-08T00:09:47;25.60;;;11.23;;
23608;SDS011;11982;50.810;4.442;2023-04-08T00:12:13;33.38;;;11.38;;
23608;SDS011;11982;50.810;4.442;2023-04-08T00:14:38;33.25;;;11.00;;
23608;SDS011;11982;50.810;4.442;2023-04-08T00:17:05;33.45;;;12.25;;
23608;SDS011;11982;50.810;4.442;2023-04-08T00:19:31;39.67;;;11.27;;
23608;SDS011;11982;50.810;4.442;2023-04-08T00:21:57;33.33;;;10.50;;
23608;SDS011;11982;50.810;4.442;2023-04-08T00:24:23;36.75;;;11.18;;
23608;SDS011;11982;50.810;4.442;2023-04-08T00:26:49;29.95;;;11.38;;
23608;SDS011;11982;50.810;4.442;2023-04-08T00:29:15;39.55;;;11.63;;
23608;SDS011;11982;50.810;4.442;2023-04-08T00:31:41;27.75;;;10.73;;
23608;SDS011;11982;50.810;4.442;2023-04-08T00:34:07;37.50;;;11.60;;
23608;SDS011;11982;50.810;4.442;2023-04-08T00:36:32;33.92;;;11.25;;
23608;SDS011;11982;50.810;4.442;2023-04-08T00:39:00;33.60;;;11.50;;
23608;SDS011;11982;50.810;4.442;2023-04-08T00:41:26;37.72;;;12.50;;
23608;SDS011;11982;50.810;4.442;2023-04-08T00:43:51;35.85;;;12.60;;
23608;SDS011;11982;50.810;4.442;2023-04-08T00:46:18;31.45;;;12.52;;
23608;SDS011;11982;50.810;4.442;2023-04-08T00:48:44;34.03;;;11.90;;
23608;SDS011;11982;50.810;4.442;2023-04-08T00:51:10;36.38;;;12.75;;
23608;SDS011;11982;50.810;4.442;2023-04-08T00:53:36;35.47;;;13.05;;
23608;SDS011;11982;50.810;4.442;2023-04-08T00:56:02;35.65;;;11.80;;
23608;SDS011;11982;50.810;4.442;2023-04-08T00:58:28;41.90;;;12.55;;
23608;SDS011;11982;50.810;4.442;2023-04-08T01:00:57;36.38;;;12.50;;
23608;SDS011;11982;50.810;4.442;2023-04-08T01:03:56;27.58;;;10.88;;
23608;SDS011;11982;50.810;4.442;2023-04-08T01:06:31;35.97;;;12.00;;
23608;SDS011;11982;50.810;4.442;2023-04-08T01:09:10;47.15;;;12.05;;
23608;SDS011;11982;50.810;4.442;2023-04-08T01:11:37;34.90;;;12.05;;
23608;SDS011;11982;50.810;4.442;2023-04-08T01:14:07;35.70;;;12.27;;
23608;SDS011;11982;50.810;4.442;2023-04-08T01:16:37;35.95;;;12.15;;
23608;SDS011;11982;50.810;4.442;2023-04-08T01:19:07;38.63;;;12.40;;
23608;SDS011;11982;50.810;4.442;2023-04-08T01:21:39;35.63;;;12.65;;
23608;SDS011;11982;50.810;4.442;2023-04-08T01:24:05;27.13;;;11.13;;
23608;SDS011;11982;50.810;4.442;2023-04-08T01:26:52;37.45;;;11.60;;
23608;SDS011;11982;50.810;4.442;2023-04-08T01:29:21;38.45;;;12.05;;
23608;SDS011;11982;50.810;4.442;2023-04-08T01:31:48;36.13;;;12.00;;
23608;SDS011;11982;50.810;4.442;2023-04-08T01:34:15;37.20;;;13.25;;
23608;SDS011;11982;50.810;4.442;2023-04-08T01:36:43;37.25;;;12.35;;
23608;SDS011;11982;50.810;4.442;2023-04-08T01:39:10;33.58;;;11.85;;
23608;SDS011;11982;50.810;4.442;2023-04-08T01:41:38;28.92;;;11.77;;
23608;SDS011;11982;50.810;4.442;2023-04-08T01:44:04;36.15;;;12.25;;
23608;SDS011;11982;50.810;4.442;2023-04-08T01:46:30;34.97;;;12.85;;
23608;SDS011;11982;50.810;4.442;2023-04-08T01:48:57;35.10;;;12.38;;
23608;SDS011;11982;50.810;4.442;2023-04-08T01:51:25;35.53;;;13.07;;
23608;SDS011;11982;50.810;4.442;2023-04-08T01:53:51;43.17;;;13.05;;
23608;SDS011;11982;50.810;4.442;2023-04-08T01:56:17;28.75;;;12.43;;
23608;SDS011;11982;50.810;4.442;2023-04-08T01:58:47;32.67;;;13.40;;
23608;SDS011;11982;50.810;4.442;2023-04-08T02:01:16;29.55;;;12.30;;
23608;SDS011;11982;50.810;4.442;2023-04-08T02:03:44;31.45;;;12.20;;
23608;SDS011;11982;50.810;4.442;2023-04-08T02:06:11;31.10;;;11.98;;
23608;SDS011;11982;50.810;4.442;2023-04-08T02:08:37;31.52;;;12.63;;
23608;SDS011;11982;50.810;4.442;2023-04-08T02:11:03;30.45;;;12.32;;
23608;SDS011;11982;50.810;4.442;2023-04-08T02:13:29;31.33;;;12.57;;
23608;SDS011;11982;50.810;4.442;2023-04-08T02:15:57;31.15;;;13.48;;
23608;SDS011;11982;50.810;4.442;2023-04-08T02:18:39;31.27;;;14.10;;
23608;SDS011;11982;50.810;4.442;2023-04-08T02:21:13;31.63;;;13.10;;
23608;SDS011;11982;50.810;4.442;2023-04-08T02:23:40;36.70;;;13.45;;
23608;SDS011;11982;50.810;4.442;2023-04-08T02:26:11;33.10;;;11.82;;
23608;SDS011;11982;50.810;4.442;2023-04-08T02:28:38;29.08;;;13.45;;
23608;SDS011;11982;50.810;4.442;2023-04-08T02:31:08;33.25;;;12.50;;
23608;SDS011;11982;50.810;4.442;2023-04-08T02:33:37;30.42;;;12.95;;
23608;SDS011;11982;50.810;4.442;2023-04-08T02:36:04;39.83;;;12.82;;
23608;SDS011;11982;50.810;4.442;2023-04-08T02:38:31;36.28;;;13.55;;
23608;SDS011;11982;50.810;4.442;2023-04-08T02:40:57;33.17;;;13.00;;
23608;SDS011;11982;50.810;4.442;2023-04-08T02:43:23;39.42;;;14.55;;
23608;SDS011;11982;50.810;4.442;2023-04-08T02:45:55;38.75;;;14.75;;
23608;SDS011;11982;50.810;4.442;2023-04-08T02:48:27;36.92;;;15.68;;
23608;SDS011;11982;50.810;4.442;2023-04-08T02:50:53;38.30;;;15.02;;
23608;SDS011;11982;50.810;4.442;2023-04-08T02:53:20;36.60;;;15.80;;
23608;SDS011;11982;50.810;4.442;2023-04-08T02:55:46;34.30;;;16.63;;
23608;SDS011;11982;50.810;4.442;2023-04-08T02:58:12;40.72;;;17.48;;
23608;SDS011;11982;50.810;4.442;2023-04-08T03:00:38;38.88;;;16.70;;
23608;SDS011;11982;50.810;4.442;2023-04-08T03:03:04;33.58;;;16.60;;
23608;SDS011;11982;50.810;4.442;2023-04-08T03:05:30;36.03;;;17.70;;
23608;SDS011;11982;50.810;4.442;2023-04-08T03:07:56;32.67;;;17.23;;
23608;SDS011;11982;50.810;4.442;2023-04-08T03:10:22;41.42;;;17.50;;
23608;SDS011;11982;50.810;4.442;2023-04-08T03:12:48;34.45;;;17.13;;
23608;SDS011;11982;50.810;4.442;2023-04-08T03:15:14;35.92;;;15.18;;
23608;SDS011;11982;50.810;4.442;2023-04-08T03:17:40;37.25;;;16.48;;
23608;SDS011;11982;50.810;4.442;2023-04-08T03:20:06;40.72;;;17.88;;
23608;SDS011;11982;50.810;4.442;2023-04-08T03:22:32;44.30;;;16.58;;
23608;SDS011;11982;50.810;4.442;2023-04-08T03:24:58;32.05;;;16.35;;
23608;SDS011;11982;50.810;4.442;2023-04-08T03:27:24;38.85;;;17.17;;
23608;SDS011;11982;50.810;4.442;2023-04-08T03:29:50;41.97;;;17.65;;
23608;SDS011;11982;50.810;4.442;2023-04-08T03:32:17;39.63;;;17.05;;
23608;SDS011;11982;50.810;4.442;2023-04-08T03:34:43;33.10;;;16.08;;
23608;SDS011;11982;50.810;4.442;2023-04-08T03:37:08;37.75;;;15.75;;
23608;SDS011;11982;50.810;4.442;2023-04-08T03:39:34;40.65;;;16.90;;
23608;SDS011;11982;50.810;4.442;2023-04-08T03:42:00;42.80;;;18.73;;
23608;SDS011;11982;50.810;4.442;2023-04-08T03:44:27;39.22;;;18.05;;
23608;SDS011;11982;50.810;4.442;2023-04-08T03:46:52;36.42;;;17.80;;
23608;SDS011;11982;50.810;4.442;2023-04-08T03:49:18;39.95;;;18.65;;
23608;SDS011;11982;50.810;4.442;2023-04-08T03:51:44;46.50;;;19.90;;
23608;SDS011;11982;50.810;4.442;2023-04-08T03:54:09;54.28;;;19.52;;
23608;SDS011;11982;50.810;4.442;2023-04-08T03:56:35;43.00;;;19.40;;
23608;SDS011;11982;50.810;4.442;2023-04-08T03:59:01;44.97;;;20.05;;
23608;SDS011;11982;50.810;4.442;2023-04-08T04:01:26;43.25;;;20.52;;
23608;SDS011;11982;50.810;4.442;2023-04-08T04:03:53;54.65;;;21.33;;
23608;SDS011;11982;50.810;4.442;2023-04-08T04:06:18;44.90;;;19.25;;
23608;SDS011;11982;50.810;4.442;2023-04-08T04:08:44;44.00;;;20.48;;
23608;SDS011;11982;50.810;4.442;2023-04-08T04:11:10;44.97;;;21.13;;
23608;SDS011;11982;50.810;4.442;2023-04-08T04:13:36;43.65;;;21.27;;
23608;SDS011;11982;50.810;4.442;2023-04-08T04:16:01;58.80;;;23.10;;
23608;SDS011;11982;50.810;4.442;2023-04-08T04:18:27;60.22;;;23.17;;
23608;SDS011;11982;50.810;4.442;2023-04-08T04:20:53;59.10;;;23.80;;
23608;SDS011;11982;50.810;4.442;2023-04-08T04:23:19;49.47;;;22.63;;
23608;SDS011;11982;50.810;4.442;2023-04-08T04:25:45;49.78;;;23.85;;
23608;SDS011;11982;50.810;4.442;2023-04-08T04:28:10;55.72;;;23.20;;
23608;SDS011;11982;50.810;4.442;2023-04-08T04:30:37;53.40;;;23.08;;
23608;SDS011;11982;50.810;4.442;2023-04-08T04:33:05;54.80;;;23.27;;
23608;SDS011;11982;50.810;4.442;2023-04-08T04:35:31;54.25;;;23.58;;
23608;SDS011;11982;50.810;4.442;2023-04-08T04:37:58;52.05;;;23.10;;
23608;SDS011;11982;50.810;4.442;2023-04-08T04:40:23;65.45;;;24.08;;
23608;SDS011;11982;50.810;4.442;2023-04-08T04:42:49;49.95;;;24.70;;
23608;SDS011;11982;50.810;4.442;2023-04-08T04:45:15;66.85;;;25.67;;
23608;SDS011;11982;50.810;4.442;2023-04-08T04:47:40;50.97;;;23.73;;
23608;SDS011;11982;50.810;4.442;2023-04-08T04:50:06;66.85;;;26.33;;
23608;SDS011;11982;50.810;4.442;2023-04-08T04:52:32;54.83;;;24.27;;
23608;SDS011;11982;50.810;4.442;2023-04-08T04:55:00;66.00;;;25.63;;
23608;SDS011;11982;50.810;4.442;2023-04-08T04:57:26;68.82;;;27.08;;
23608;SDS011;11982;50.810;4.442;2023-04-08T04:59:51;61.33;;;27.40;;
23608;SDS011;11982;50.810;4.442;2023-04-08T05:02:17;61.90;;;27.55;;
23608;SDS011;11982;50.810;4.442;2023-04-08T05:04:43;62.42;;;26.33;;
23608;SDS011;11982;50.810;4.442;2023-04-08T05:07:08;60.58;;;26.35;;
23608;SDS011;11982;50.810;4.442;2023-04-08T05:09:34;71.95;;;27.73;;
23608;SDS011;11982;50.810;4.442;2023-04-08T05:12:00;62.67;;;27.92;;
23608;SDS011;11982;50.810;4.442;2023-04-08T05:14:27;73.57;;;27.30;;
23608;SDS011;11982;50.810;4.442;2023-04-08T05:16:54;64.35;;;28.30;;
23608;SDS011;11982;50.810;4.442;2023-04-08T05:19:20;63.53;;;25.98;;
23608;SDS011;11982;50.810;4.442;2023-04-08T05:21:45;70.10;;;26.65;;
23608;SDS011;11982;50.810;4.442;2023-04-08T05:24:11;62.75;;;26.83;;
23608;SDS011;11982;50.810;4.442;2023-04-08T05:26:37;72.13;;;28.20;;
23608;SDS011;11982;50.810;4.442;2023-04-08T05:29:02;74.50;;;28.00;;
23608;SDS011;11982;50.810;4.442;2023-04-08T05:31:28;65.80;;;28.83;;
23608;SDS011;11982;50.810;4.442;2023-04-08T05:33:54;72.60;;;27.42;;
23608;SDS011;11982;50.810;4.442;2023-04-08T05:36:20;71.38;;;29.00;;
23608;SDS011;11982;50.810;4.442;2023-04-08T05:38:45;65.75;;;28.30;;
23608;SDS011;11982;50.810;4.442;2023-04-08T05:41:11;75.43;;;28.65;;
23608;SDS011;11982;50.810;4.442;2023-04-08T05:43:37;81.57;;;29.58;;
23608;SDS011;11982;50.810;4.442;2023-04-08T05:46:05;72.07;;;27.83;;
23608;SDS011;11982;50.810;4.442;2023-04-08T05:48:32;69.55;;;27.30;;
23608;SDS011;11982;50.810;4.442;2023-04-08T05:50:57;79.32;;;27.65;;
23608;SDS011;11982;50.810;4.442;2023-04-08T05:53:23;76.18;;;28.00;;
23608;SDS011;11982;50.810;4.442;2023-04-08T05:55:49;78.60;;;29.15;;
23608;SDS011;11982;50.810;4.442;2023-04-08T05:58:15;58.78;;;26.48;;
23608;SDS011;11982;50.810;4.442;2023-04-08T06:00:41;69.35;;;28.40;;
23608;SDS011;11982;50.810;4.442;2023-04-08T06:03:06;68.15;;;27.15;;
23608;SDS011;11982;50.810;4.442;2023-04-08T06:05:32;69.95;;;28.42;;
23608;SDS011;11982;50.810;4.442;2023-04-08T06:07:58;59.47;;;26.40;;
23608;SDS011;11982;50.810;4.442;2023-04-08T06:10:23;70.18;;;27.27;;
23608;SDS011;11982;50.810;4.442;2023-04-08T06:12:49;73.35;;;27.75;;
23608;SDS011;11982;50.810;4.442;2023-04-08T06:15:15;68.70;;;26.95;;
23608;SDS011;11982;50.810;4.442;2023-04-08T06:17:41;69.43;;;27.38;;
23608;SDS011;11982;50.810;4.442;2023-04-08T06:20:06;65.18;;;25.00;;
23608;SDS011;11982;50.810;4.442;2023-04-08T06:22:35;68.00;;;27.05;;
23608;SDS011;11982;50.810;4.442;2023-04-08T06:25:01;61.42;;;28.75;;
23608;SDS011;11982;50.810;4.442;2023-04-08T06:27:27;68.22;;;27.33;;
23608;SDS011;11982;50.810;4.442;2023-04-08T06:29:53;61.47;;;27.13;;
23608;SDS011;11982;50.810;4.442;2023-04-08T06:32:19;61.88;;;25.77;;
23608;SDS011;11982;50.810;4.442;2023-04-08T06:34:45;60.40;;;25.75;;
23608;SDS011;11982;50.810;4.442;2023-04-08T06:37:11;64.45;;;26.98;;
23608;SDS011;11982;50.810;4.442;2023-04-08T06:39:37;62.35;;;26.80;;
23608;SDS011;11982;50.810;4.442;2023-04-08T06:42:03;59.55;;;26.05;;
23608;SDS011;11982;50.810;4.442;2023-04-08T06:44:28;58.60;;;27.33;;
23608;SDS011;11982;50.810;4.442;2023-04-08T06:46:54;53.72;;;24.95;;
23608;SDS011;11982;50.810;4.442;2023-04-08T06:49:20;46.28;;;23.08;;
23608;SDS011;11982;50.810;4.442;2023-04-08T06:51:45;56.30;;;25.00;;
23608;SDS011;11982;50.810;4.442;2023-04-08T06:54:11;57.42;;;25.90;;
23608;SDS011;11982;50.810;4.442;2023-04-08T06:56:37;56.33;;;24.88;;
23608;SDS011;11982;50.810;4.442;2023-04-08T06:59:03;58.63;;;25.85;;
23608;SDS011;11982;50.810;4.442;2023-04-08T07:01:29;64.70;;;26.77;;
23608;SDS011;11982;50.810;4.442;2023-04-08T07:03:56;53.95;;;25.95;;
23608;SDS011;11982;50.810;4.442;2023-04-08T07:06:22;58.10;;;26.00;;
23608;SDS011;11982;50.810;4.442;2023-04-08T07:08:47;53.33;;;25.05;;
23608;SDS011;11982;50.810;4.442;2023-04-08T07:11:13;49.03;;;21.35;;
23608;SDS011;11982;50.810;4.442;2023-04-08T07:13:39;51.05;;;21.92;;
23608;SDS011;11982;50.810;4.442;2023-04-08T07:16:05;46.38;;;22.98;;
23608;SDS011;11982;50.810;4.442;2023-04-08T07:18:31;47.58;;;22.63;;
23608;SDS011;11982;50.810;4.442;2023-04-08T07:20:57;43.95;;;24.00;;
23608;SDS011;11982;50.810;4.442;2023-04-08T07:23:25;46.35;;;22.50;;
23608;SDS011;11982;50.810;4.442;2023-04-08T07:25:51;42.47;;;21.25;;
23608;SDS011;11982;50.810;4.442;2023-04-08T07:28:18;47.53;;;22.30;;
23608;SDS011;11982;50.810;4.442;2023-04-08T07:30:44;44.15;;;21.27;;
23608;SDS011;11982;50.810;4.442;2023-04-08T07:33:10;50.55;;;22.55;;
23608;SDS011;11982;50.810;4.442;2023-04-08T07:35:36;44.50;;;21.20;;
23608;SDS011;11982;50.810;4.442;2023-04-08T07:38:02;46.90;;;21.63;;
23608;SDS011;11982;50.810;4.442;2023-04-08T07:40:28;38.80;;;19.55;;
23608;SDS011;11982;50.810;4.442;2023-04-08T07:42:54;41.03;;;19.67;;
23608;SDS011;11982;50.810;4.442;2023-04-08T07:45:20;41.83;;;21.45;;
23608;SDS011;11982;50.810;4.442;2023-04-08T07:47:46;41.03;;;21.60;;
23608;SDS011;11982;50.810;4.442;2023-04-08T07:50:12;37.95;;;19.13;;
23608;SDS011;11982;50.810;4.442;2023-04-08T07:52:38;39.38;;;20.10;;
23608;SDS011;11982;50.810;4.442;2023-04-08T07:55:03;39.25;;;20.42;;
23608;SDS011;11982;50.810;4.442;2023-04-08T07:57:30;37.08;;;18.65;;
23608;SDS011;11982;50.810;4.442;2023-04-08T07:59:56;35.75;;;17.85;;
23608;SDS011;11982;50.810;4.442;2023-04-08T08:02:22;25.98;;;15.27;;
23608;SDS011;11982;50.810;4.442;2023-04-08T08:04:47;37.60;;;16.25;;
23608;SDS011;11982;50.810;4.442;2023-04-08T08:07:13;32.17;;;16.35;;
23608;SDS011;11982;50.810;4.442;2023-04-08T08:09:39;30.35;;;14.85;;
23608;SDS011;11982;50.810;4.442;2023-04-08T08:12:04;35.70;;;17.60;;
23608;SDS011;11982;50.810;4.442;2023-04-08T08:14:30;39.03;;;18.33;;
23608;SDS011;11982;50.810;4.442;2023-04-08T08:16:56;34.25;;;18.73;;
23608;SDS011;11982;50.810;4.442;2023-04-08T08:19:22;32.38;;;15.45;;
23608;SDS011;11982;50.810;4.442;2023-04-08T08:21:48;35.10;;;18.30;;
23608;SDS011;11982;50.810;4.442;2023-04-08T08:24:13;36.45;;;17.88;;
23608;SDS011;11982;50.810;4.442;2023-04-08T08:26:40;33.63;;;17.98;;
23608;SDS011;11982;50.810;4.442;2023-04-08T08:29:06;33.08;;;16.70;;
23608;SDS011;11982;50.810;4.442;2023-04-08T08:31:33;28.42;;;16.40;;
23608;SDS011;11982;50.810;4.442;2023-04-08T08:33:59;27.30;;;15.65;;
23608;SDS011;11982;50.810;4.442;2023-04-08T08:36:24;31.60;;;15.98;;
23608;SDS011;11982;50.810;4.442;2023-04-08T08:38:51;27.92;;;16.70;;
23608;SDS011;11982;50.810;4.442;2023-04-08T08:41:18;30.25;;;16.98;;
23608;SDS011;11982;50.810;4.442;2023-04-08T08:43:44;31.92;;;16.52;;
23608;SDS011;11982;50.810;4.442;2023-04-08T08:46:11;31.67;;;16.27;;
23608;SDS011;11982;50.810;4.442;2023-04-08T08:48:41;32.22;;;16.60;;
23608;SDS011;11982;50.810;4.442;2023-04-08T08:51:08;29.48;;;17.83;;
23608;SDS011;11982;50.810;4.442;2023-04-08T08:53:34;32.20;;;17.70;;
23608;SDS011;11982;50.810;4.442;2023-04-08T08:56:00;31.10;;;18.52;;
23608;SDS011;11982;50.810;4.442;2023-04-08T08:58:26;33.20;;;18.00;;
23608;SDS011;11982;50.810;4.442;2023-04-08T09:00:52;33.80;;;18.85;;
23608;SDS011;11982;50.810;4.442;2023-04-08T09:03:22;30.75;;;18.45;;
23608;SDS011;11982;50.810;4.442;2023-04-08T09:08:22;31.05;;;16.20;;
23608;SDS011;11982;50.810;4.442;2023-04-08T09:11:15;26.00;;;16.10;;
23608;SDS011;11982;50.810;4.442;2023-04-08T09:13:43;29.25;;;17.60;;
23608;SDS011;11982;50.810;4.442;2023-04-08T09:16:10;28.25;;;16.45;;
23608;SDS011;11982;50.810;4.442;2023-04-08T09:18:38;31.25;;;17.40;;
23608;SDS011;11982;50.810;4.442;2023-04-08T09:21:08;26.83;;;15.52;;
23608;SDS011;11982;50.810;4.442;2023-04-08T09:23:39;27.42;;;14.77;;
23608;SDS011;11982;50.810;4.442;2023-04-08T09:26:10;29.00;;;16.27;;
23608;SDS011;11982;50.810;4.442;2023-04-08T09:28:37;23.02;;;12.63;;
23608;SDS011;11982;50.810;4.442;2023-04-08T09:34:11;18.65;;;10.85;;
23608;SDS011;11982;50.810;4.442;2023-04-08T09:36:39;16.95;;;11.38;;
23608;SDS011;11982;50.810;4.442;2023-04-08T09:39:05;22.05;;;11.23;;
23608;SDS011;11982;50.810;4.442;2023-04-08T09:41:34;18.80;;;12.10;;
23608;SDS011;11982;50.810;4.442;2023-04-08T09:44:05;19.88;;;11.85;;
23608;SDS011;11982;50.810;4.442;2023-04-08T09:49:32;21.67;;;13.32;;
23608;SDS011;11982;50.810;4.442;2023-04-08T09:52:19;23.88;;;12.43;;
23608;SDS011;11982;50.810;4.442;2023-04-08T09:55:07;23.73;;;14.18;;
23608;SDS011;11982;50.810;4.442;2023-04-08T09:57:44;30.13;;;16.33;;
23608;SDS011;11982;50.810;4.442;2023-04-08T10:02:44;26.70;;;15.68;;
23608;SDS011;11982;50.810;4.442;2023-04-08T10:05:25;26.80;;;15.68;;
23608;SDS011;11982;50.810;4.442;2023-04-08T10:07:52;20.52;;;14.88;;
23608;SDS011;11982;50.810;4.442;2023-04-08T10:10:19;24.27;;;15.10;;
23608;SDS011;11982;50.810;4.442;2023-04-08T10:12:46;27.75;;;14.90;;
23608;SDS011;11982;50.810;4.442;2023-04-08T10:17:55;26.45;;;14.85;;
23608;SDS011;11982;50.810;4.442;2023-04-08T10:20:47;28.92;;;16.15;;
23608;SDS011;11982;50.810;4.442;2023-04-08T10:23:14;24.88;;;16.23;;
23608;SDS011;11982;50.810;4.442;2023-04-08T10:25:45;27.02;;;17.48;;
23608;SDS011;11982;50.810;4.442;2023-04-08T10:30:44;30.77;;;17.90;;
23608;SDS011;11982;50.810;4.442;2023-04-08T10:33:16;24.20;;;14.75;;
23608;SDS011;11982;50.810;4.442;2023-04-08T10:35:58;23.23;;;15.57;;
23608;SDS011;11982;50.810;4.442;2023-04-08T10:38:35;20.88;;;14.45;;
23608;SDS011;11982;50.810;4.442;2023-04-08T10:41:02;24.95;;;13.88;;
23608;SDS011;11982;50.810;4.442;2023-04-08T10:43:31;28.77;;;15.18;;
23608;SDS011;11982;50.810;4.442;2023-04-08T10:45:58;27.90;;;14.80;;
23608;SDS011;11982;50.810;4.442;2023-04-08T10:48:23;26.60;;;14.98;;
23608;SDS011;11982;50.810;4.442;2023-04-08T10:53:31;23.77;;;13.52;;
23608;SDS011;11982;50.810;4.442;2023-04-08T10:56:05;19.27;;;11.52;;
23608;SDS011;11982;50.810;4.442;2023-04-08T10:58:46;23.75;;;11.98;;
23608;SDS011;11982;50.810;4.442;2023-04-08T11:01:16;19.75;;;12.65;;
23608;SDS011;11982;50.810;4.442;2023-04-08T11:03:42;19.23;;;12.50;;
23608;SDS011;11982;50.810;4.442;2023-04-08T11:06:08;19.75;;;12.88;;
23608;SDS011;11982;50.810;4.442;2023-04-08T11:08:34;22.17;;;12.07;;
23608;SDS011;11982;50.810;4.442;2023-04-08T11:11:01;22.10;;;12.40;;
23608;SDS011;11982;50.810;4.442;2023-04-08T11:13:27;21.30;;;13.48;;
23608;SDS011;11982;50.810;4.442;2023-04-08T11:15:57;30.23;;;13.85;;
23608;SDS011;11982;50.810;4.442;2023-04-08T11:18:24;18.77;;;12.32;;
23608;SDS011;11982;50.810;4.442;2023-04-08T11:20:51;26.45;;;12.90;;
23608;SDS011;11982;50.810;4.442;2023-04-08T11:23:17;18.10;;;12.70;;
23608;SDS011;11982;50.810;4.442;2023-04-08T11:25:43;22.48;;;13.75;;
23608;SDS011;11982;50.810;4.442;2023-04-08T11:28:11;21.92;;;12.80;;
23608;SDS011;11982;50.810;4.442;2023-04-08T11:30:37;25.92;;;15.93;;
23608;SDS011;11982;50.810;4.442;2023-04-08T11:33:04;20.80;;;12.80;;
23608;SDS011;11982;50.810;4.442;2023-04-08T11:35:34;18.42;;;11.35;;
23608;SDS011;11982;50.810;4.442;2023-04-08T11:38:08;25.48;;;13.68;;
23608;SDS011;11982;50.810;4.442;2023-04-08T11:40:34;20.70;;;13.15;;
23608;SDS011;11982;50.810;4.442;2023-04-08T11:43:07;19.73;;;12.25;;
23608;SDS011;11982;50.810;4.442;2023-04-08T11:48:07;18.58;;;12.00;;
23608;SDS011;11982;50.810;4.442;2023-04-08T11:50:35;19.17;;;10.23;;
23608;SDS011;11982;50.810;4.442;2023-04-08T11:53:00;21.13;;;12.65;;
23608;SDS011;11982;50.810;4.442;2023-04-08T11:55:30;22.30;;;12.57;;
23608;SDS011;11982;50.810;4.442;2023-04-08T11:58:02;18.75;;;13.32;;
23608;SDS011;11982;50.810;4.442;2023-04-08T12:00:31;21.85;;;12.80;;
23608;SDS011;11982;50.810;4.442;2023-04-08T12:02:57;22.85;;;14.75;;
23608;SDS011;11982;50.810;4.442;2023-04-08T12:05:22;22.10;;;15.10;;
23608;SDS011;11982;50.810;4.442;2023-04-08T12:07:48;26.15;;;15.68;;
23608;SDS011;11982;50.810;4.442;2023-04-08T12:10:14;27.70;;;16.90;;
23608;SDS011;11982;50.810;4.442;2023-04-08T12:12:40;29.38;;;16.25;;
23608;SDS011;11982;50.810;4.442;2023-04-08T12:15:06;31.17;;;17.08;;
23608;SDS011;11982;50.810;4.442;2023-04-08T12:17:32;28.05;;;17.80;;
23608;SDS011;11982;50.810;4.442;2023-04-08T12:19:58;29.33;;;17.75;;
23608;SDS011;11982;50.810;4.442;2023-04-08T12:22:24;28.15;;;18.65;;
23608;SDS011;11982;50.810;4.442;2023-04-08T12:24:50;28.17;;;17.88;;
23608;SDS011;11982;50.810;4.442;2023-04-08T12:27:16;30.65;;;16.88;;
23608;SDS011;11982;50.810;4.442;2023-04-08T12:29:41;28.45;;;17.90;;
23608;SDS011;11982;50.810;4.442;2023-04-08T12:32:07;30.88;;;18.52;;
23608;SDS011;11982;50.810;4.442;2023-04-08T12:34:33;37.40;;;20.67;;
23608;SDS011;11982;50.810;4.442;2023-04-08T12:36:59;37.45;;;18.40;;
23608;SDS011;11982;50.810;4.442;2023-04-08T12:39:24;26.88;;;18.73;;
23608;SDS011;11982;50.810;4.442;2023-04-08T12:41:50;26.38;;;17.50;;
23608;SDS011;11982;50.810;4.442;2023-04-08T12:44:16;29.30;;;18.60;;
23608;SDS011;11982;50.810;4.442;2023-04-08T12:46:42;42.95;;;19.10;;
23608;SDS011;11982;50.810;4.442;2023-04-08T12:49:08;29.88;;;18.02;;
23608;SDS011;11982;50.810;4.442;2023-04-08T12:51:34;23.90;;;16.73;;
23608;SDS011;11982;50.810;4.442;2023-04-08T12:54:03;24.55;;;17.20;;
23608;SDS011;11982;50.810;4.442;2023-04-08T12:56:29;28.80;;;17.60;;
23608;SDS011;11982;50.810;4.442;2023-04-08T12:58:56;26.83;;;17.92;;
23608;SDS011;11982;50.810;4.442;2023-04-08T13:01:22;29.25;;;18.95;;
23608;SDS011;11982;50.810;4.442;2023-04-08T13:03:48;25.27;;;16.88;;
23608;SDS011;11982;50.810;4.442;2023-04-08T13:06:14;39.22;;;18.33;;
23608;SDS011;11982;50.810;4.442;2023-04-08T13:08:40;28.13;;;17.23;;
23608;SDS011;11982;50.810;4.442;2023-04-08T13:11:06;27.02;;;17.02;;
23608;SDS011;11982;50.810;4.442;2023-04-08T13:13:32;27.20;;;17.27;;
23608;SDS011;11982;50.810;4.442;2023-04-08T13:15:58;24.27;;;16.15;;
23608;SDS011;11982;50.810;4.442;2023-04-08T13:18:24;23.25;;;16.88;;
23608;SDS011;11982;50.810;4.442;2023-04-08T13:20:50;26.92;;;17.40;;
23608;SDS011;11982;50.810;4.442;2023-04-08T13:23:16;27.90;;;17.58;;
23608;SDS011;11982;50.810;4.442;2023-04-08T13:25:42;24.23;;;17.08;;
23608;SDS011;11982;50.810;4.442;2023-04-08T13:28:09;31.05;;;16.92;;
23608;SDS011;11982;50.810;4.442;2023-04-08T13:30:35;23.55;;;17.50;;
23608;SDS011;11982;50.810;4.442;2023-04-08T13:33:01;28.35;;;18.35;;
23608;SDS011;11982;50.810;4.442;2023-04-08T13:35:27;25.63;;;17.38;;
23608;SDS011;11982;50.810;4.442;2023-04-08T13:37:53;28.50;;;17.70;;
23608;SDS011;11982;50.810;4.442;2023-04-08T13:40:18;24.70;;;16.00;;
23608;SDS011;11982;50.810;4.442;2023-04-08T13:42:44;23.15;;;15.63;;
23608;SDS011;11982;50.810;4.442;2023-04-08T13:45:10;23.63;;;16.52;;
23608;SDS011;11982;50.810;4.442;2023-04-08T13:47:36;25.23;;;15.43;;
23608;SDS011;11982;50.810;4.442;2023-04-08T13:50:02;24.73;;;17.23;;
23608;SDS011;11982;50.810;4.442;2023-04-08T13:52:28;26.60;;;16.65;;
23608;SDS011;11982;50.810;4.442;2023-04-08T13:54:54;24.15;;;16.75;;
23608;SDS011;11982;50.810;4.442;2023-04-08T13:57:20;22.52;;;16.10;;
23608;SDS011;11982;50.810;4.442;2023-04-08T13:59:46;24.38;;;15.80;;
23608;SDS011;11982;50.810;4.442;2023-04-08T14:02:11;24.40;;;15.23;;
23608;SDS011;11982;50.810;4.442;2023-04-08T14:04:37;24.30;;;15.60;;
23608;SDS011;11982;50.810;4.442;2023-04-08T14:07:03;22.88;;;16.08;;
23608;SDS011;11982;50.810;4.442;2023-04-08T14:09:29;20.35;;;13.93;;
23608;SDS011;11982;50.810;4.442;2023-04-08T14:11:55;23.88;;;15.55;;
23608;SDS011;11982;50.810;4.442;2023-04-08T14:14:21;21.58;;;15.68;;
23608;SDS011;11982;50.810;4.442;2023-04-08T14:16:47;21.75;;;15.38;;
23608;SDS011;11982;50.810;4.442;2023-04-08T14:19:13;24.33;;;15.80;;
23608;SDS011;11982;50.810;4.442;2023-04-08T14:21:39;27.15;;;16.98;;
23608;SDS011;11982;50.810;4.442;2023-04-08T14:24:05;29.08;;;17.35;;
23608;SDS011;11982;50.810;4.442;2023-04-08T14:26:30;27.52;;;15.75;;
23608;SDS011;11982;50.810;4.442;2023-04-08T14:29:00;24.95;;;16.60;;
23608;SDS011;11982;50.810;4.442;2023-04-08T14:31:27;26.48;;;17.30;;
23608;SDS011;11982;50.810;4.442;2023-04-08T14:33:52;24.40;;;16.88;;
23608;SDS011;11982;50.810;4.442;2023-04-08T14:36:18;23.92;;;17.08;;
23608;SDS011;11982;50.810;4.442;2023-04-08T14:38:44;27.33;;;16.77;;
23608;SDS011;11982;50.810;4.442;2023-04-08T14:41:10;31.48;;;18.60;;